createdAt,value
2023-04-27T00:02:02.254Z,8.00
2023-04-27T00:04:29.291Z,8.00
2023-04-27T00:06:56.262Z,8.00
2023-04-27T00:09:23.031Z,7.90
2023-04-27T00:11:49.772Z,7.90
2023-04-27T00:14:16.652Z,7.90
2023-04-27T00:16:47.904Z,7.90
2023-04-27T00:19:15.372Z,7.90
2023-04-27T00:21:42.530Z,7.80
2023-04-27T00:24:09.175Z,7.80
2023-04-27T00:26:35.909Z,7.80
2023-04-27T00:31:29.712Z,7.70
2023-04-27T00:33:56.456Z,7.60
2023-04-27T00:36:23.122Z,7.50
2023-04-27T00:38:49.851Z,7.50
2023-04-27T00:41:16.597Z,7.50
2023-04-27T00:43:45.061Z,7.50
2023-04-27T00:46:16.907Z,7.50
2023-04-27T00:48:46.723Z,7.50
2023-04-27T00:51:16.506Z,7.50
2023-04-27T00:53:43.711Z,7.50
2023-04-27T00:56:11.120Z,7.40
2023-04-27T00:58:37.759Z,7.40
2023-04-27T01:01:07.787Z,7.40
2023-04-27T01:03:34.644Z,7.40
2023-04-27T01:06:03.803Z,7.40
2023-04-27T01:08:30.580Z,7.30
2023-04-27T01:10:57.346Z,7.40
2023-04-27T01:13:24.083Z,7.40
2023-04-27T01:15:50.887Z,7.50
2023-04-27T01:18:17.847Z,7.50
2023-04-27T01:20:47.030Z,7.50
2023-04-27T01:23:16.784Z,7.60
2023-04-27T01:25:49.187Z,7.50
2023-04-27T01:28:18.083Z,7.50
2023-04-27T01:30:47.350Z,7.60
2023-04-27T01:33:14.021Z,7.60
2023-04-27T01:35:40.743Z,7.60
2023-04-27T01:38:07.465Z,7.50
2023-04-27T01:40:34.266Z,7.40
2023-04-27T01:43:00.938Z,7.30
2023-04-27T01:45:27.621Z,7.40
2023-04-27T01:47:54.381Z,7.50
2023-04-27T01:50:27.336Z,7.60
2023-04-27T01:52:54.018Z,7.60
2023-04-27T01:55:20.707Z,7.60
2023-04-27T01:57:47.348Z,7.60
2023-04-27T02:00:14.443Z,7.60
2023-04-27T02:02:41.238Z,7.50
2023-04-27T02:05:20.580Z,7.40
2023-04-27T02:07:47.333Z,7.30
2023-04-27T02:10:14.022Z,7.30
2023-04-27T02:28:19.233Z,7.10
2023-04-27T02:31:48.781Z,7.00
2023-04-27T02:35:17.939Z,6.70
2023-04-27T02:38:59.395Z,6.70
2023-04-27T02:49:56.842Z,6.50
2023-04-27T02:53:32.237Z,6.60
2023-04-27T02:56:55.206Z,6.60
2023-04-27T03:00:17.955Z,6.50
2023-04-27T03:03:59.355Z,6.60
2023-04-27T03:07:41.111Z,6.80
2023-04-27T03:11:04.354Z,6.80
2023-04-27T03:14:27.240Z,6.90
2023-04-27T03:17:56.595Z,6.80
2023-04-27T03:21:19.845Z,6.80
2023-04-27T03:23:46.565Z,6.90
2023-04-27T03:26:14.387Z,6.90
2023-04-27T03:28:42.132Z,6.80
2023-04-27T03:31:10.966Z,6.80
2023-04-27T03:33:37.950Z,6.80
2023-04-27T03:36:08.707Z,6.70
2023-04-27T03:38:40.372Z,6.80
2023-04-27T03:41:07.070Z,6.80
2023-04-27T03:43:33.773Z,6.90
2023-04-27T03:46:00.462Z,7.00
2023-04-27T03:48:29.609Z,7.00
2023-04-27T03:50:56.281Z,7.10
2023-04-27T03:53:23.009Z,7.20
2023-04-27T03:55:49.740Z,7.00
2023-04-27T03:58:17.469Z,7.00
2023-04-27T04:00:46.482Z,7.00
2023-04-27T04:03:13.443Z,7.00
2023-04-27T04:05:42.979Z,7.00
2023-04-27T04:08:09.713Z,7.00
2023-04-27T04:10:36.453Z,6.90
2023-04-27T04:13:05.395Z,6.90
2023-04-27T04:15:34.538Z,6.90
2023-04-27T04:18:01.446Z,6.90
2023-04-27T04:20:28.352Z,6.90
2023-04-27T04:22:57.472Z,6.90
2023-04-27T04:25:26.137Z,6.90
2023-04-27T04:27:52.902Z,6.90
2023-04-27T04:30:19.974Z,6.90
2023-04-27T04:32:49.712Z,6.90
2023-04-27T04:35:19.614Z,6.80
2023-04-27T04:37:47.578Z,6.80
2023-04-27T04:40:14.441Z,6.90
2023-04-27T04:42:41.359Z,7.00
2023-04-27T04:45:08.667Z,7.00
2023-04-27T04:47:35.358Z,7.00
2023-04-27T04:50:04.251Z,6.90
2023-04-27T04:52:31.012Z,6.90
2023-04-27T04:54:57.706Z,6.90
2023-04-27T04:57:24.383Z,6.80
2023-04-27T04:59:51.146Z,6.80
2023-04-27T05:02:17.838Z,6.80
2023-04-27T05:04:46.788Z,6.90
2023-04-27T05:07:15.264Z,6.80
2023-04-27T05:09:45.081Z,6.90
2023-04-27T05:12:11.820Z,6.90
2023-04-27T05:14:38.561Z,6.90
2023-04-27T05:17:05.226Z,7.00
2023-04-27T05:19:31.985Z,7.10
2023-04-27T05:21:59.084Z,7.20
2023-04-27T05:24:26.863Z,7.30
2023-04-27T05:26:54.300Z,7.30
2023-04-27T05:29:23.253Z,7.30
2023-04-27T05:31:50.055Z,7.40
2023-04-27T05:36:47.571Z,7.50
2023-04-27T05:39:14.532Z,7.90
2023-04-27T05:41:43.619Z,7.60
2023-04-27T05:44:10.296Z,7.60
2023-04-27T05:46:38.683Z,7.60
2023-04-27T05:49:05.706Z,7.70
2023-04-27T05:51:34.941Z,7.70
2023-04-27T05:54:01.875Z,7.70
2023-04-27T05:56:31.088Z,7.70
2023-04-27T05:59:02.384Z,7.90
2023-04-27T06:01:31.903Z,7.90
2023-04-27T06:04:01.394Z,8.00
2023-04-27T06:08:58.389Z,8.50
2023-04-27T06:11:25.173Z,8.30
2023-04-27T06:13:51.892Z,8.40
2023-04-27T06:16:18.746Z,8.40
2023-04-27T06:18:45.623Z,8.50
2023-04-27T06:21:14.507Z,8.50
2023-04-27T06:23:41.163Z,8.60
2023-04-27T06:26:10.208Z,8.60
2023-04-27T06:28:36.846Z,8.70
2023-04-27T06:31:03.741Z,8.80
2023-04-27T06:36:04.777Z,8.90
2023-04-27T06:38:32.043Z,9.10
2023-04-27T06:40:59.202Z,9.10
2023-04-27T06:43:25.914Z,9.20
2023-04-27T06:45:52.765Z,9.20
2023-04-27T06:48:19.595Z,9.20
2023-04-27T06:50:47.207Z,9.20
2023-04-27T06:53:14.008Z,9.10
2023-04-27T06:55:43.464Z,9.10
2023-04-27T06:58:11.707Z,9.20
2023-04-27T07:00:40.667Z,9.10
2023-04-27T07:03:07.442Z,9.20
2023-04-27T07:05:34.705Z,9.30
2023-04-27T07:08:04.587Z,9.30
2023-04-27T07:10:33.844Z,9.30
2023-04-27T07:13:00.563Z,9.40
2023-04-27T07:15:27.406Z,9.50
2023-04-27T07:17:54.172Z,9.60
2023-04-27T07:20:23.326Z,9.70
2023-04-27T07:22:50.011Z,9.70
2023-04-27T07:25:19.768Z,9.60
2023-04-27T07:27:49.154Z,9.60
2023-04-27T07:30:18.321Z,9.60
2023-04-27T07:32:45.605Z,9.60
2023-04-27T07:35:13.486Z,9.70
2023-04-27T07:37:40.396Z,9.80
2023-04-27T07:40:16.443Z,9.80
2023-04-27T07:42:46.241Z,9.80
2023-04-27T07:45:12.956Z,9.70
2023-04-27T07:47:39.906Z,9.70
2023-04-27T07:50:09.634Z,9.70
2023-04-27T07:52:37.323Z,9.80
2023-04-27T07:55:04.662Z,9.90
2023-04-27T07:57:31.520Z,9.90
2023-04-27T08:00:00.843Z,10.00
2023-04-27T08:02:31.674Z,10.20
2023-04-27T08:05:02.960Z,10.10
2023-04-27T08:07:30.234Z,10.20
2023-04-27T08:09:56.996Z,10.20
2023-04-27T08:12:23.691Z,10.30
2023-04-27T08:14:53.052Z,10.50
2023-04-27T08:17:21.988Z,10.50
2023-04-27T08:19:56.073Z,10.50
2023-04-27T08:22:22.758Z,10.50
2023-04-27T08:24:49.432Z,10.70
2023-04-27T08:27:16.185Z,10.80
2023-04-27T08:29:49.407Z,10.90
2023-04-27T08:32:19.370Z,10.90
2023-04-27T08:34:46.514Z,10.90
2023-04-27T08:37:15.651Z,11.10
2023-04-27T08:39:42.426Z,11.20
2023-04-27T08:42:13.729Z,11.40
2023-04-27T08:44:44.479Z,11.60
2023-04-27T08:47:11.712Z,11.50
2023-04-27T08:49:38.849Z,11.50
2023-04-27T08:52:12.561Z,11.60
2023-04-27T08:54:39.540Z,11.70
2023-04-27T08:57:16.324Z,11.60
2023-04-27T08:59:48.700Z,11.50
2023-04-27T09:02:21.845Z,11.50
2023-04-27T09:04:48.835Z,11.40
2023-04-27T09:07:17.808Z,11.40
2023-04-27T09:09:45.629Z,11.40
2023-04-27T09:12:16.319Z,11.60
2023-04-27T09:14:43.534Z,11.60
2023-04-27T09:17:10.576Z,11.60
2023-04-27T09:19:39.456Z,11.70
2023-04-27T09:22:08.836Z,11.80
2023-04-27T09:24:37.846Z,12.00
2023-04-27T09:27:06.299Z,12.00
2023-04-27T09:29:37.604Z,12.00
2023-04-27T09:32:19.093Z,12.10
2023-04-27T09:34:45.855Z,12.20
2023-04-27T09:39:42.267Z,12.70
2023-04-27T09:42:09.253Z,12.90
2023-04-27T09:44:38.581Z,13.20
2023-04-27T09:47:06.293Z,13.20
2023-04-27T09:49:34.861Z,13.40
2023-04-27T09:52:04.155Z,13.40
2023-04-27T09:54:33.388Z,13.30
2023-04-27T09:57:12.740Z,13.10
2023-04-27T10:00:01.307Z,13.00
2023-04-27T10:02:30.355Z,13.00
2023-04-27T10:05:42.706Z,13.00
2023-04-27T10:08:11.433Z,12.90
2023-04-27T10:10:48.250Z,13.00
2023-04-27T10:13:27.911Z,13.10
2023-04-27T10:18:31.108Z,13.40
2023-04-27T10:21:10.059Z,13.90
2023-04-27T10:23:51.773Z,13.90
2023-04-27T10:26:29.380Z,13.70
2023-04-27T10:29:04.826Z,14.10
2023-04-27T10:31:31.930Z,14.00
2023-04-27T10:34:09.451Z,13.80
2023-04-27T10:36:40.868Z,13.80
2023-04-27T10:39:16.541Z,13.90
2023-04-27T10:41:54.370Z,14.00
2023-04-27T10:44:27.143Z,14.00
2023-04-27T10:46:55.119Z,14.00
2023-04-27T10:49:23.086Z,13.90
2023-04-27T10:51:53.224Z,13.90
2023-04-27T10:54:19.985Z,14.00
2023-04-27T10:56:46.723Z,14.00
2023-04-27T10:59:13.713Z,14.20
2023-04-27T11:01:40.916Z,14.40
2023-04-27T11:04:07.718Z,14.50
2023-04-27T11:06:42.958Z,14.50
2023-04-27T11:09:11.014Z,14.60
2023-04-27T11:11:37.814Z,14.80
2023-04-27T11:14:04.604Z,15.00
2023-04-27T11:16:33.958Z,15.20
2023-04-27T11:19:07.214Z,15.10
2023-04-27T11:21:33.913Z,14.80
2023-04-27T11:24:07.588Z,14.70
2023-04-27T11:26:34.480Z,14.80
2023-04-27T11:29:12.353Z,14.80
2023-04-27T11:31:49.052Z,14.80
2023-04-27T11:34:24.117Z,14.70
2023-04-27T11:37:23.937Z,14.60
2023-04-27T11:39:51.011Z,14.60
2023-04-27T11:42:31.454Z,14.50
2023-04-27T11:45:08.055Z,14.50
2023-04-27T11:47:38.148Z,14.60
2023-04-27T11:50:10.513Z,14.70
2023-04-27T11:52:40.461Z,14.70
2023-04-27T11:55:09.270Z,14.80
2023-04-27T12:00:15.122Z,14.90
2023-04-27T12:02:43.512Z,15.10
2023-04-27T12:05:12.315Z,14.90
2023-04-27T12:07:39.630Z,14.80
2023-04-27T12:10:07.811Z,14.80
2023-04-27T12:12:34.543Z,14.90
2023-04-27T12:15:01.633Z,14.70
2023-04-27T12:17:28.437Z,14.70
2023-04-27T12:19:55.183Z,14.60
2023-04-27T12:22:22.288Z,14.70
2023-04-27T12:24:51.340Z,14.80
2023-04-27T12:27:18.114Z,15.00
2023-04-27T12:29:44.836Z,15.00
2023-04-27T12:32:11.689Z,15.00
2023-04-27T12:34:39.361Z,15.10
2023-04-27T12:37:06.583Z,15.10
2023-04-27T12:39:33.290Z,15.20
2023-04-27T12:42:00.033Z,15.30
2023-04-27T12:44:29.206Z,15.50
2023-04-27T12:46:56.410Z,15.70
2023-04-27T12:49:23.166Z,15.80
2023-04-27T12:51:51.852Z,15.70
2023-04-27T12:54:21.157Z,15.60
2023-04-27T12:56:47.841Z,15.60
2023-04-27T12:59:19.296Z,15.90
2023-04-27T13:01:48.532Z,16.40
2023-04-27T13:04:20.892Z,16.70
2023-04-27T13:06:48.519Z,16.80
2023-04-27T13:09:17.362Z,16.80
2023-04-27T13:11:44.147Z,16.80
2023-04-27T13:14:13.149Z,16.90
2023-04-27T13:16:45.768Z,16.80
2023-04-27T13:19:12.500Z,16.80
2023-04-27T13:21:39.405Z,16.70
2023-04-27T13:24:06.670Z,16.50
2023-04-27T13:26:34.077Z,16.40
2023-04-27T13:29:02.230Z,16.40
2023-04-27T13:31:31.877Z,16.30
2023-04-27T13:33:58.723Z,16.40
2023-04-27T13:36:25.570Z,16.40
2023-04-27T13:38:54.741Z,16.70
2023-04-27T13:41:22.365Z,17.00
2023-04-27T13:43:51.501Z,17.40
2023-04-27T13:46:18.274Z,17.60
2023-04-27T13:48:44.968Z,17.60
2023-04-27T13:51:11.794Z,17.40
2023-04-27T13:53:38.482Z,17.40
2023-04-27T13:56:05.711Z,17.60
2023-04-27T13:58:32.636Z,17.50
2023-04-27T14:00:59.554Z,17.20
2023-04-27T14:03:26.499Z,17.60
2023-04-27T14:05:53.320Z,17.90
2023-04-27T14:08:24.955Z,18.10
2023-04-27T14:10:51.663Z,18.20
2023-04-27T14:13:18.708Z,18.60
2023-04-27T14:15:45.765Z,19.00
2023-04-27T14:18:12.910Z,19.10
2023-04-27T14:20:41.977Z,18.90
2023-04-27T14:23:09.360Z,18.80
2023-04-27T14:25:39.110Z,19.10
2023-04-27T14:28:06.684Z,19.50
2023-04-27T14:30:34.486Z,19.80
2023-04-27T14:33:03.857Z,19.90
2023-04-27T14:35:30.735Z,19.90
2023-04-27T14:38:01.969Z,19.80
2023-04-27T14:40:32.332Z,19.50
2023-04-27T14:42:59.500Z,19.50
2023-04-27T14:45:36.730Z,19.70
2023-04-27T14:48:06.913Z,19.90
2023-04-27T14:50:33.693Z,19.60
2023-04-27T14:53:02.906Z,19.00
2023-04-27T14:55:29.695Z,18.90
2023-04-27T14:57:56.416Z,19.20
2023-04-27T15:02:55.027Z,20.10
2023-04-27T15:05:25.011Z,20.10
2023-04-27T15:07:51.702Z,19.80
2023-04-27T15:10:18.675Z,19.50
2023-04-27T15:12:46.532Z,19.40
2023-04-27T15:15:13.487Z,19.30
2023-04-27T15:17:40.217Z,19.00
2023-04-27T15:20:10.752Z,19.10
2023-04-27T15:37:28.480Z,19.30
2023-04-27T15:39:55.800Z,19.70
2023-04-27T15:42:23.736Z,20.00
2023-04-27T15:44:50.982Z,20.00
2023-04-27T15:54:53.608Z,18.10
2023-04-27T15:57:25.035Z,17.80
2023-04-27T15:59:54.203Z,17.50
2023-04-27T16:02:21.353Z,17.40
2023-04-27T16:04:49.160Z,17.30
2023-04-27T16:07:15.904Z,17.20
2023-04-27T16:09:45.052Z,17.20
2023-04-27T16:12:14.240Z,17.20
2023-04-27T16:14:45.862Z,17.20
2023-04-27T16:17:12.590Z,17.10
2023-04-27T16:19:41.599Z,17.10
2023-04-27T16:22:08.361Z,17.00
2023-04-27T16:24:35.090Z,16.90
2023-04-27T16:27:04.104Z,16.90
2023-04-27T16:34:27.892Z,16.50
2023-04-27T16:36:55.026Z,16.50
2023-04-27T16:39:24.519Z,16.40
2023-04-27T16:41:51.252Z,16.40
2023-04-27T16:44:20.279Z,16.40
2023-04-27T16:46:52.441Z,16.40
2023-04-27T16:49:21.513Z,16.40
2023-04-27T16:51:48.244Z,16.40
2023-04-27T16:54:16.518Z,16.40
2023-04-27T16:56:46.571Z,16.30
2023-04-27T16:59:13.583Z,16.20
2023-04-27T17:01:40.667Z,16.20
2023-04-27T17:04:07.625Z,16.30
2023-04-27T17:06:36.555Z,16.20
2023-04-27T17:09:03.284Z,16.20
2023-04-27T17:11:32.392Z,16.20
2023-04-27T17:13:59.310Z,16.20
2023-04-27T17:16:30.848Z,16.20
2023-04-27T17:18:57.567Z,16.20
2023-04-27T17:21:25.470Z,16.20
2023-04-27T17:23:54.587Z,16.10
2023-04-27T17:26:21.690Z,16.20
2023-04-27T17:28:49.501Z,16.10
2023-04-27T17:31:19.456Z,16.20
2023-04-27T17:33:46.166Z,16.10
2023-04-27T17:36:15.164Z,16.10
2023-04-27T17:38:44.270Z,16.10
2023-04-27T17:41:13.115Z,15.80
2023-04-27T17:43:39.886Z,16.00
2023-04-27T17:46:09.551Z,15.90
2023-04-27T17:48:38.795Z,15.90
2023-04-27T17:51:05.751Z,15.80
2023-04-27T17:53:32.489Z,15.80
2023-04-27T17:56:01.525Z,15.80
2023-04-27T17:58:28.227Z,15.70
2023-04-27T18:05:56.088Z,15.70
2023-04-27T18:08:22.755Z,15.70
2023-04-27T18:10:49.482Z,15.50
2023-04-27T18:13:16.278Z,15.40
2023-04-27T18:15:43.136Z,15.40
2023-04-27T18:18:11.166Z,15.40
2023-04-27T18:20:37.940Z,15.30
2023-04-27T18:23:04.671Z,15.30
2023-04-27T18:25:33.850Z,15.30
2023-04-27T18:28:00.755Z,15.30
2023-04-27T18:30:27.543Z,15.30
2023-04-27T18:32:54.251Z,15.20
2023-04-27T18:35:21.068Z,15.10
2023-04-27T18:40:19.064Z,14.90
2023-04-27T18:42:48.050Z,14.90
2023-04-27T18:45:15.385Z,14.80
2023-04-27T18:47:42.180Z,14.80
2023-04-27T18:50:10.357Z,14.70
2023-04-27T18:52:37.050Z,14.70
2023-04-27T18:55:04.044Z,14.70
2023-04-27T18:57:35.538Z,14.70
2023-04-27T19:00:04.495Z,14.70
2023-04-27T19:02:31.756Z,14.70
2023-04-27T19:05:11.367Z,14.70
2023-04-27T19:07:42.550Z,14.70
2023-04-27T19:10:09.767Z,14.60
2023-04-27T19:12:36.551Z,14.60
2023-04-27T19:15:03.711Z,14.60
2023-04-27T19:17:33.089Z,14.60
2023-04-27T19:19:59.954Z,14.50
2023-04-27T19:22:34.030Z,14.50
2023-04-27T19:27:28.352Z,14.50
2023-04-27T19:29:58.724Z,14.50
2023-04-27T19:32:28.621Z,14.50
2023-04-27T19:34:56.964Z,14.50
2023-04-27T19:37:27.800Z,14.50
2023-04-27T19:39:54.786Z,14.50
2023-04-27T19:42:24.906Z,14.40
2023-04-27T19:44:51.723Z,14.30
2023-04-27T19:47:18.656Z,14.40
2023-04-27T19:49:49.820Z,14.40
2023-04-27T19:52:16.483Z,14.10
2023-04-27T19:54:43.208Z,14.50
2023-04-27T19:57:09.962Z,14.40
2023-04-27T19:59:39.125Z,14.10
2023-04-27T20:02:05.877Z,14.40
2023-04-27T20:05:29.341Z,14.40
2023-04-27T20:08:52.656Z,14.40
2023-04-27T20:12:34.920Z,14.30
2023-04-27T20:16:05.088Z,14.20
2023-04-27T20:19:28.426Z,14.10
2023-04-27T20:22:51.392Z,14.10
2023-04-27T20:26:14.582Z,14.10
2023-04-27T20:29:37.453Z,14.00
2023-04-27T20:33:07.081Z,14.00
2023-04-27T20:36:17.045Z,13.90
2023-04-27T20:39:46.975Z,13.90
2023-04-27T20:43:10.167Z,13.80
2023-04-27T20:46:39.339Z,13.70
2023-04-27T20:50:02.293Z,13.70
2023-04-27T20:53:37.522Z,13.60
2023-04-27T20:57:00.543Z,13.60
2023-04-27T21:00:23.732Z,13.60
2023-04-27T21:07:33.881Z,13.50
2023-04-27T21:11:02.866Z,13.50
2023-04-27T21:14:31.910Z,13.50
2023-04-27T21:18:13.415Z,13.30
2023-04-27T21:21:45.745Z,13.20
2023-04-27T21:28:49.848Z,13.20
2023-04-27T21:32:31.163Z,13.20
2023-04-27T21:36:06.231Z,13.20
2023-04-27T21:39:35.685Z,13.20
2023-04-27T21:42:58.480Z,13.10
2023-04-27T21:46:33.696Z,13.20
2023-04-27T21:49:57.127Z,13.20
2023-04-27T21:52:42.085Z,13.10
2023-04-27T21:55:26.969Z,13.10
2023-04-27T21:57:59.312Z,13.10
2023-04-27T22:00:38.864Z,13.10
2023-04-27T22:03:08.892Z,13.10
2023-04-27T22:06:00.433Z,13.10
2023-04-27T22:08:51.845Z,13.20
2023-04-27T22:11:43.222Z,13.10
2023-04-27T22:14:41.750Z,13.10
2023-04-27T22:17:15.140Z,13.10
2023-04-27T22:19:47.995Z,13.10
2023-04-27T22:22:16.892Z,13.10
2023-04-27T22:24:45.691Z,13.10
2023-04-27T22:27:12.759Z,13.20
2023-04-27T22:29:39.450Z,13.20
2023-04-27T22:32:06.588Z,13.20
2023-04-27T22:34:33.830Z,13.20
2023-04-27T22:37:00.645Z,13.20
2023-04-27T22:39:27.417Z,13.20
2023-04-27T22:41:56.539Z,13.20
2023-04-27T22:44:23.215Z,13.20
2023-04-27T22:46:49.969Z,13.20
2023-04-27T22:49:17.300Z,13.20
2023-04-27T22:51:47.098Z,13.20
2023-04-27T22:54:16.446Z,13.20
2023-04-27T22:56:43.320Z,13.20
2023-04-27T22:59:10.083Z,13.20
2023-04-27T23:01:36.831Z,13.20
2023-04-27T23:04:06.001Z,13.20
2023-04-27T23:06:32.882Z,13.20
2023-04-27T23:09:03.074Z,13.30
2023-04-27T23:11:29.769Z,13.20
2023-04-27T23:13:58.936Z,13.30
2023-04-27T23:16:30.069Z,13.30
2023-04-27T23:18:56.760Z,13.30
2023-04-27T23:21:28.128Z,13.40
2023-04-27T23:23:54.811Z,13.40
2023-04-27T23:26:23.942Z,13.40
2023-04-27T23:28:52.882Z,13.40
2023-04-27T23:31:19.585Z,13.40
2023-04-27T23:33:46.261Z,13.30
2023-04-27T23:36:12.908Z,13.30
2023-04-27T23:38:42.061Z,13.30
2023-04-27T23:41:08.728Z,13.40
2023-04-27T23:43:35.404Z,13.40
2023-04-27T23:46:02.499Z,13.40
2023-04-27T23:48:29.188Z,13.30
2023-04-27T23:51:07.191Z,13.30
2023-04-27T23:53:36.028Z,13.30
2023-04-27T23:56:02.715Z,13.30
2023-04-27T23:58:29.440Z,13.20
